Weather History for KCIU - May, 2013

Change the Weather History Date:

Saturday, May 18, 2013

  Actual Average Record
Temperature  
Mean Temperature 55 °F -  
Max Temperature 66 °F 64 °F 80 °F (1989)
Min Temperature 44 °F 40 °F 23 °F (1981)
Degree Days  
Heating Degree Days 10    
Growing Degree Days 5 (Base 50)    
Moisture  
Dew Point 39 °F    
Average Humidity 57    
Maximum Humidity 87    
Minimum Humidity 35    
Precipitation  
Precipitation 0.00 in - - ()
Sea Level Pressure  
Sea Level Pressure 30.17 in    
Wind  
Wind Speed 10 mph (ESE)    
Max Wind Speed 24 mph    
Max Gust Speed 30 mph    
Visibility 10 miles    
Events      
Averages and records for this station are not official NWS values.
T = Trace of Precipitation, MM = Missing Value Source: NWS Daily Summary

Daily Weather History Graph

Daily Weather History Graph

Search for Another Location

Airport or City:

Trip Planner

Search our weather history database for the weather conditions in past years. The results will help you decide how hot, cold, wet, or windy it might be!

Date:

Astronomy

May. 18, 2013 Rise Set
Actual Time 6:01 AM EDT 9:08 PM EDT
Civil Twilight 5:25 AM EDT 9:44 PM EDT
Nautical Twilight 4:39 AM EDT 10:30 PM EDT
Astronomical Twilight 3:42 AM EDT 11:27 PM EDT
Moon 1:47 PM EDT (5/18) 2:17 AM EDT (5/18)
Length of Visible Light 16h 18m
Length of Day
15h 06m
First Quarter, 55% of the Moon is Illuminated
May 18
First Quarter
May 25
Full
May 31
Last Quarter
Jun 8
New
Jun 16
First Quarter

Hourly Weather History & Observations

Time (EDT) Temp. Windchill Dew Point Humidity Pressure Visibility Wind Dir Wind Speed Gust Speed Precip Events Conditions
12:35 AM 48.2 °F - 35.6 °F 62% 30.21 in 10.0 mi ESE 4.6 mph - N/A   Clear
12:55 AM 46.4 °F 44.3 °F 37.4 °F 71% 30.20 in 10.0 mi ESE 4.6 mph - N/A   Clear
1:15 AM 46.4 °F 44.3 °F 37.4 °F 71% 30.20 in 10.0 mi ESE 4.6 mph - N/A   Clear
1:35 AM 46.4 °F 44.3 °F 37.4 °F 71% 30.19 in 10.0 mi ESE 4.6 mph - N/A   Clear
1:55 AM 46.4 °F 43.5 °F 37.4 °F 71% 30.19 in 10.0 mi ESE 5.8 mph - N/A   Clear
2:15 AM 46.4 °F 43.5 °F 37.4 °F 71% 30.19 in 10.0 mi East 5.8 mph - N/A   Clear
2:35 AM 44.6 °F 42.2 °F 37.4 °F 76% 30.18 in 10.0 mi East 4.6 mph - N/A   Clear
2:55 AM 44.6 °F 43.1 °F 37.4 °F 76% 30.18 in 10.0 mi East 3.5 mph - N/A   Clear
3:15 AM 44.6 °F 41.4 °F 39.2 °F 81% 30.18 in 10.0 mi East 5.8 mph - N/A   Clear
3:35 AM 46.4 °F 42.9 °F 39.2 °F 76% 30.19 in 10.0 mi East 6.9 mph - N/A   Clear
3:55 AM 44.6 °F 41.4 °F 39.2 °F 81% 30.20 in 10.0 mi East 5.8 mph - N/A   Clear
4:15 AM 44.6 °F 42.2 °F 39.2 °F 81% 30.21 in 10.0 mi ESE 4.6 mph - N/A   Clear
4:35 AM 44.6 °F 41.4 °F 41.0 °F 87% 30.22 in 10.0 mi ESE 5.8 mph - N/A   Clear
4:55 AM 46.4 °F 42.4 °F 39.2 °F 76% 30.21 in 10.0 mi ESE 8.1 mph - N/A   Clear
5:15 AM 46.4 °F 41.9 °F 39.2 °F 76% 30.21 in 10.0 mi ESE 9.2 mph - N/A   Clear
5:35 AM 46.4 °F 42.4 °F 39.2 °F 76% 30.20 in 10.0 mi ESE 8.1 mph - N/A   Clear
5:55 AM 46.4 °F 42.4 °F 39.2 °F 76% 30.21 in 10.0 mi ESE 8.1 mph - N/A   Clear
6:15 AM 46.4 °F 41.5 °F 39.2 °F 76% 30.20 in 10.0 mi East 10.4 mph - N/A   Clear
6:35 AM 46.4 °F 41.9 °F 39.2 °F 76% 30.21 in 10.0 mi East 9.2 mph - N/A   Clear
6:55 AM 46.4 °F 41.1 °F 39.2 °F 76% 30.21 in 10.0 mi ESE 11.5 mph - N/A   Clear
7:15 AM 48.2 °F - 39.2 °F 71% 30.21 in 10.0 mi East 9.2 mph - N/A   Clear
7:35 AM 48.2 °F - 39.2 °F 71% 30.21 in 10.0 mi ESE 10.4 mph - N/A   Clear
7:55 AM 48.2 °F - 39.2 °F 71% 30.22 in 10.0 mi ESE 10.4 mph - N/A   Clear
8:15 AM 50.0 °F - 39.2 °F 66% 30.23 in 10.0 mi ESE 11.5 mph - N/A   Clear
8:35 AM 51.8 °F - 41.0 °F 67% 30.23 in 10.0 mi East 9.2 mph - N/A   Clear
8:55 AM 53.6 °F - 41.0 °F 62% 30.23 in 10.0 mi East 9.2 mph - N/A   Clear
9:15 AM 53.6 °F - 41.0 °F 62% 30.23 in 10.0 mi East 8.1 mph - N/A   Clear
9:35 AM 55.4 °F - 39.2 °F 54% 30.23 in 10.0 mi SE 15.0 mph 18.4 mph N/A   Clear
9:55 AM 57.2 °F - 39.2 °F 51% 30.22 in 10.0 mi ESE 12.7 mph - N/A   Clear
10:15 AM 59.0 °F - 39.2 °F 48% 30.22 in 10.0 mi SE 12.7 mph - N/A   Clear
10:35 AM 60.8 °F - 37.4 °F 42% 30.22 in 10.0 mi SSE 13.8 mph 21.9 mph N/A   Clear
10:55 AM 62.6 °F - 39.2 °F 42% 30.21 in 10.0 mi ESE 15.0 mph 19.6 mph N/A   Clear
11:15 AM 62.6 °F - 37.4 °F 39% 30.21 in 10.0 mi SE 15.0 mph 21.9 mph N/A   Clear
11:35 AM 64.4 °F - 39.2 °F 40% 30.21 in 10.0 mi ESE 13.8 mph 20.7 mph N/A   Clear
11:55 AM 64.4 °F - 39.2 °F 40% 30.20 in 10.0 mi SSE 13.8 mph 21.9 mph N/A   Clear
12:15 PM 66.2 °F - 37.4 °F 35% 30.20 in 10.0 mi SSE 16.1 mph 23.0 mph N/A   Clear
12:35 PM 66.2 °F - 37.4 °F 35% 30.19 in 10.0 mi SE 18.4 mph 21.9 mph N/A   Clear
12:55 PM 64.4 °F - 39.2 °F 40% 30.19 in 10.0 mi SSE 15.0 mph 23.0 mph N/A   Clear
1:15 PM 64.4 °F - 39.2 °F 40% 30.19 in 10.0 mi SE 15.0 mph 24.2 mph N/A   Clear
1:35 PM 64.4 °F - 39.2 °F 40% 30.18 in 10.0 mi SE 16.1 mph 25.3 mph N/A   Clear
1:55 PM 64.4 °F - 37.4 °F 37% 30.18 in 10.0 mi SSE 15.0 mph 24.2 mph N/A   Mostly Cloudy
2:15 PM 64.4 °F - 37.4 °F 37% 30.17 in 10.0 mi SE 18.4 mph 25.3 mph N/A   Mostly Cloudy
2:35 PM 64.4 °F - 37.4 °F 37% 30.16 in 10.0 mi ESE 19.6 mph 24.2 mph N/A   Scattered Clouds
2:55 PM 64.4 °F - 37.4 °F 37% 30.16 in 10.0 mi SE 24.2 mph 29.9 mph N/A   Mostly Cloudy
3:15 PM 64.4 °F - 37.4 °F 37% 30.16 in 10.0 mi SE 18.4 mph - N/A   Overcast
3:35 PM 64.4 °F - 37.4 °F 37% 30.15 in 10.0 mi SE 23.0 mph 26.5 mph N/A   Overcast
3:55 PM 62.6 °F - 39.2 °F 42% 30.15 in 10.0 mi SE 17.3 mph 21.9 mph N/A   Overcast
4:15 PM 62.6 °F - 39.2 °F 42% 30.14 in 10.0 mi SE 16.1 mph - N/A   Overcast
4:35 PM 62.6 °F - 39.2 °F 42% 30.14 in 10.0 mi SE 16.1 mph 23.0 mph N/A   Overcast
4:55 PM 62.6 °F - 39.2 °F 42% 30.13 in 10.0 mi SE 19.6 mph 25.3 mph N/A   Overcast
5:15 PM 62.6 °F - 39.2 °F 42% 30.13 in 10.0 mi SE 18.4 mph 24.2 mph N/A   Overcast
5:35 PM 60.8 °F - 39.2 °F 45% 30.13 in 10.0 mi SE 17.3 mph - N/A   Overcast
5:55 PM 60.8 °F - 41.0 °F 48% 30.12 in 10.0 mi SE 12.7 mph - N/A   Overcast
6:15 PM 60.8 °F - 41.0 °F 48% 30.12 in 10.0 mi SE 11.5 mph - N/A   Overcast
6:35 PM 60.8 °F - 39.2 °F 45% 30.11 in 10.0 mi ESE 12.7 mph - N/A   Overcast
6:55 PM 60.8 °F - 39.2 °F 45% 30.11 in 10.0 mi ESE 13.8 mph 19.6 mph N/A   Overcast
7:15 PM 59.0 °F - 39.2 °F 48% 30.11 in 10.0 mi SE 12.7 mph 18.4 mph N/A   Overcast
7:35 PM 59.0 °F - 42.8 °F 55% 30.10 in 10.0 mi ESE 10.4 mph - N/A   Overcast
7:55 PM 57.2 °F - 41.0 °F 55% 30.10 in 10.0 mi ESE 10.4 mph - N/A   Overcast
8:15 PM 57.2 °F - 41.0 °F 55% 30.10 in 10.0 mi ESE 9.2 mph - N/A   Overcast
8:35 PM 57.2 °F - 41.0 °F 55% 30.10 in 10.0 mi ESE 10.4 mph - N/A   Overcast
8:55 PM 57.2 °F - 41.0 °F 55% 30.10 in 10.0 mi ESE 10.4 mph - N/A   Overcast
9:15 PM 57.2 °F - 41.0 °F 55% 30.09 in 10.0 mi ESE 10.4 mph - N/A   Overcast
9:35 PM 55.4 °F - 41.0 °F 58% 30.09 in 10.0 mi ESE 10.4 mph - N/A   Overcast
9:55 PM 55.4 °F - 41.0 °F 58% 30.09 in 10.0 mi ESE 10.4 mph - N/A   Overcast
10:15 PM 55.4 °F - 41.0 °F 58% 30.08 in 10.0 mi ESE 11.5 mph - N/A   Overcast
10:35 PM 55.4 °F - 39.2 °F 54% 30.08 in 10.0 mi ESE 11.5 mph - N/A   Overcast
10:55 PM 55.4 °F - 39.2 °F 54% 30.07 in 10.0 mi ESE 13.8 mph - N/A   Overcast
11:15 PM 55.4 °F - 39.2 °F 54% 30.07 in 10.0 mi SE 11.5 mph - N/A   Overcast
11:35 PM 55.4 °F - 41.0 °F 58% 30.07 in 10.0 mi ESE 11.5 mph - N/A   Overcast
11:55 PM 55.4 °F - 41.0 °F 58% 30.06 in 10.0 mi ESE 10.4 mph - N/A   Overcast